sensor_id;sensor_type;location;lat;lon;timestamp;P1;P2;P0
62054;PMS5003;48653;51.742;-1.256;2023-04-21T00:01:55;20;19;
62054;PMS5003;48653;51.742;-1.256;2023-04-21T00:04:20;23;23;
62054;PMS5003;48653;51.742;-1.256;2023-04-21T00:06:45;26;21;
62054;PMS5003;48653;51.742;-1.256;2023-04-21T00:09:11;27;24;
62054;PMS5003;48653;51.742;-1.256;2023-04-21T00:11:37;27;25;
62054;PMS5003;48653;51.742;-1.256;2023-04-21T00:14:02;24;22;
62054;PMS5003;48653;51.742;-1.256;2023-04-21T00:16:27;25;21;
62054;PMS5003;48653;51.742;-1.256;2023-04-21T00:18:53;26;25;
62054;PMS5003;48653;51.742;-1.256;2023-04-21T00:21:19;28;26;
62054;PMS5003;48653;51.742;-1.256;2023-04-21T00:23:44;22;22;
62054;PMS5003;48653;51.742;-1.256;2023-04-21T00:26:10;31;26;
62054;PMS5003;48653;51.742;-1.256;2023-04-21T00:28:35;25;24;
62054;PMS5003;48653;51.742;-1.256;2023-04-21T00:31:00;25;23;
62054;PMS5003;48653;51.742;-1.256;2023-04-21T00:33:26;21;20;
62054;PMS5003;48653;51.742;-1.256;2023-04-21T00:35:51;29;25;
62054;PMS5003;48653;51.742;-1.256;2023-04-21T00:38:17;23;21;
62054;PMS5003;48653;51.742;-1.256;2023-04-21T00:40:42;27;24;
62054;PMS5003;48653;51.742;-1.256;2023-04-21T00:43:08;26;23;
62054;PMS5003;48653;51.742;-1.256;2023-04-21T00:45:33;28;22;
62054;PMS5003;48653;51.742;-1.256;2023-04-21T00:47:59;31;21;
62054;PMS5003;48653;51.742;-1.256;2023-04-21T00:50:24;27;26;
62054;PMS5003;48653;51.742;-1.256;2023-04-21T00:52:49;27;22;
62054;PMS5003;48653;51.742;-1.256;2023-04-21T00:55:15;25;20;
62054;PMS5003;48653;51.742;-1.256;2023-04-21T00:57:41;26;20;
62054;PMS5003;48653;51.742;-1.256;2023-04-21T01:00:07;24;20;
62054;PMS5003;48653;51.742;-1.256;2023-04-21T01:02:32;26;24;
62054;PMS5003;48653;51.742;-1.256;2023-04-21T01:04:57;23;20;
62054;PMS5003;48653;51.742;-1.256;2023-04-21T01:07:23;28;23;
62054;PMS5003;48653;51.742;-1.256;2023-04-21T01:09:48;25;24;
62054;PMS5003;48653;51.742;-1.256;2023-04-21T01:12:14;26;24;
62054;PMS5003;48653;51.742;-1.256;2023-04-21T01:14:39;25;20;
62054;PMS5003;48653;51.742;-1.256;2023-04-21T01:17:05;25;20;
62054;PMS5003;48653;51.742;-1.256;2023-04-21T01:19:31;22;22;
62054;PMS5003;48653;51.742;-1.256;2023-04-21T01:21:56;23;23;
62054;PMS5003;48653;51.742;-1.256;2023-04-21T01:24:21;24;23;
62054;PMS5003;48653;51.742;-1.256;2023-04-21T01:26:47;21;20;
62054;PMS5003;48653;51.742;-1.256;2023-04-21T01:29:12;26;23;
62054;PMS5003;48653;51.742;-1.256;2023-04-21T01:31:38;23;23;
62054;PMS5003;48653;51.742;-1.256;2023-04-21T01:34:03;26;22;
62054;PMS5003;48653;51.742;-1.256;2023-04-21T01:36:29;23;20;
62054;PMS5003;48653;51.742;-1.256;2023-04-21T01:38:55;23;22;
62054;PMS5003;48653;51.742;-1.256;2023-04-21T01:41:20;25;23;
62054;PMS5003;48653;51.742;-1.256;2023-04-21T01:43:45;25;20;
62054;PMS5003;48653;51.742;-1.256;2023-04-21T01:46:11;28;26;
62054;PMS5003;48653;51.742;-1.256;2023-04-21T01:48:36;24;21;
62054;PMS5003;48653;51.742;-1.256;2023-04-21T01:51:02;31;26;
62054;PMS5003;48653;51.742;-1.256;2023-04-21T01:53:28;28;24;
62054;PMS5003;48653;51.742;-1.256;2023-04-21T01:55:53;27;23;
62054;PMS5003;48653;51.742;-1.256;2023-04-21T01:58:18;31;28;
62054;PMS5003;48653;51.742;-1.256;2023-04-21T02:00:44;27;23;
62054;PMS5003;48653;51.742;-1.256;2023-04-21T02:03:09;28;28;
62054;PMS5003;48653;51.742;-1.256;2023-04-21T02:05:35;30;28;
62054;PMS5003;48653;51.742;-1.256;2023-04-21T02:08:00;32;24;
62054;PMS5003;48653;51.742;-1.256;2023-04-21T02:10:26;34;29;
62054;PMS5003;48653;51.742;-1.256;2023-04-21T02:12:51;28;23;
62054;PMS5003;48653;51.742;-1.256;2023-04-21T02:15:16;26;25;
62054;PMS5003;48653;51.742;-1.256;2023-04-21T02:17:41;27;25;
62054;PMS5003;48653;51.742;-1.256;2023-04-21T02:20:07;25;24;
62054;PMS5003;48653;51.742;-1.256;2023-04-21T02:22:32;32;26;
62054;PMS5003;48653;51.742;-1.256;2023-04-21T02:24:57;30;26;
62054;PMS5003;48653;51.742;-1.256;2023-04-21T02:27:23;27;27;
62054;PMS5003;48653;51.742;-1.256;2023-04-21T02:29:49;28;26;
62054;PMS5003;48653;51.742;-1.256;2023-04-21T02:32:14;31;27;
62054;PMS5003;48653;51.742;-1.256;2023-04-21T02:34:40;25;24;
62054;PMS5003;48653;51.742;-1.256;2023-04-21T02:37:06;22;22;
62054;PMS5003;48653;51.742;-1.256;2023-04-21T02:39:31;34;27;
62054;PMS5003;48653;51.742;-1.256;2023-04-21T02:41:56;27;23;
62054;PMS5003;48653;51.742;-1.256;2023-04-21T02:44:21;30;29;
62054;PMS5003;48653;51.742;-1.256;2023-04-21T02:46:47;35;31;
62054;PMS5003;48653;51.742;-1.256;2023-04-21T02:49:13;28;27;
62054;PMS5003;48653;51.742;-1.256;2023-04-21T02:51:38;25;20;
62054;PMS5003;48653;51.742;-1.256;2023-04-21T02:54:03;27;22;
62054;PMS5003;48653;51.742;-1.256;2023-04-21T02:56:29;26;22;
62054;PMS5003;48653;51.742;-1.256;2023-04-21T02:58:54;29;26;
62054;PMS5003;48653;51.742;-1.256;2023-04-21T03:01:20;28;27;
62054;PMS5003;48653;51.742;-1.256;2023-04-21T03:03:46;28;26;
62054;PMS5003;48653;51.742;-1.256;2023-04-21T03:06:12;24;24;
62054;PMS5003;48653;51.742;-1.256;2023-04-21T03:08:37;34;30;
62054;PMS5003;48653;51.742;-1.256;2023-04-21T03:11:03;33;26;
62054;PMS5003;48653;51.742;-1.256;2023-04-21T03:13:28;29;28;
62054;PMS5003;48653;51.742;-1.256;2023-04-21T03:15:53;32;26;
62054;PMS5003;48653;51.742;-1.256;2023-04-21T03:18:19;29;24;
62054;PMS5003;48653;51.742;-1.256;2023-04-21T03:20:45;33;27;
62054;PMS5003;48653;51.742;-1.256;2023-04-21T03:23:10;28;27;
62054;PMS5003;48653;51.742;-1.256;2023-04-21T03:25:36;29;29;
62054;PMS5003;48653;51.742;-1.256;2023-04-21T03:28:01;29;25;
62054;PMS5003;48653;51.742;-1.256;2023-04-21T03:30:26;29;24;
62054;PMS5003;48653;51.742;-1.256;2023-04-21T03:32:51;37;30;
62054;PMS5003;48653;51.742;-1.256;2023-04-21T03:35:17;33;28;
62054;PMS5003;48653;51.742;-1.256;2023-04-21T03:37:43;29;25;
62054;PMS5003;48653;51.742;-1.256;2023-04-21T03:40:08;34;29;
62054;PMS5003;48653;51.742;-1.256;2023-04-21T03:42:33;30;24;
62054;PMS5003;48653;51.742;-1.256;2023-04-21T03:45:00;35;32;
62054;PMS5003;48653;51.742;-1.256;2023-04-21T03:47:24;31;25;
62054;PMS5003;48653;51.742;-1.256;2023-04-21T03:49:50;31;28;
62054;PMS5003;48653;51.742;-1.256;2023-04-21T03:52:15;25;22;
62054;PMS5003;48653;51.742;-1.256;2023-04-21T03:54:40;37;28;
62054;PMS5003;48653;51.742;-1.256;2023-04-21T03:57:05;33;28;
62054;PMS5003;48653;51.742;-1.256;2023-04-21T03:59:31;32;30;
62054;PMS5003;48653;51.742;-1.256;2023-04-21T04:01:56;29;24;
62054;PMS5003;48653;51.742;-1.256;2023-04-21T04:04:21;30;27;
62054;PMS5003;48653;51.742;-1.256;2023-04-21T04:06:47;27;24;
62054;PMS5003;48653;51.742;-1.256;2023-04-21T04:09:13;36;28;
62054;PMS5003;48653;51.742;-1.256;2023-04-21T04:11:38;28;28;
62054;PMS5003;48653;51.742;-1.256;2023-04-21T04:14:04;39;27;
62054;PMS5003;48653;51.742;-1.256;2023-04-21T04:16:30;28;26;
62054;PMS5003;48653;51.742;-1.256;2023-04-21T04:18:56;34;28;
62054;PMS5003;48653;51.742;-1.256;2023-04-21T04:21:21;36;31;
62054;PMS5003;48653;51.742;-1.256;2023-04-21T04:23:48;40;32;
62054;PMS5003;48653;51.742;-1.256;2023-04-21T04:26:12;30;29;
62054;PMS5003;48653;51.742;-1.256;2023-04-21T04:28:37;33;33;
62054;PMS5003;48653;51.742;-1.256;2023-04-21T04:31:03;35;29;
62054;PMS5003;48653;51.742;-1.256;2023-04-21T04:33:28;40;34;
62054;PMS5003;48653;51.742;-1.256;2023-04-21T04:35:54;35;31;
62054;PMS5003;48653;51.742;-1.256;2023-04-21T04:38:19;30;28;
62054;PMS5003;48653;51.742;-1.256;2023-04-21T04:40:44;35;29;
62054;PMS5003;48653;51.742;-1.256;2023-04-21T04:43:10;29;28;
62054;PMS5003;48653;51.742;-1.256;2023-04-21T04:45:36;32;30;
62054;PMS5003;48653;51.742;-1.256;2023-04-21T04:48:01;40;33;
62054;PMS5003;48653;51.742;-1.256;2023-04-21T04:50:27;34;31;
62054;PMS5003;48653;51.742;-1.256;2023-04-21T04:52:52;34;27;
62054;PMS5003;48653;51.742;-1.256;2023-04-21T04:55:18;33;31;
62054;PMS5003;48653;51.742;-1.256;2023-04-21T04:57:43;29;27;
62054;PMS5003;48653;51.742;-1.256;2023-04-21T05:00:09;29;27;
62054;PMS5003;48653;51.742;-1.256;2023-04-21T05:02:34;33;30;
62054;PMS5003;48653;51.742;-1.256;2023-04-21T05:05:00;32;29;
62054;PMS5003;48653;51.742;-1.256;2023-04-21T05:07:26;37;31;
62054;PMS5003;48653;51.742;-1.256;2023-04-21T05:09:51;41;34;
62054;PMS5003;48653;51.742;-1.256;2023-04-21T05:12:16;36;32;
62054;PMS5003;48653;51.742;-1.256;2023-04-21T05:14:42;43;33;
62054;PMS5003;48653;51.742;-1.256;2023-04-21T05:17:07;38;32;
62054;PMS5003;48653;51.742;-1.256;2023-04-21T05:19:34;37;37;
62054;PMS5003;48653;51.742;-1.256;2023-04-21T05:21:58;44;35;
62054;PMS5003;48653;51.742;-1.256;2023-04-21T05:24:23;35;30;
62054;PMS5003;48653;51.742;-1.256;2023-04-21T05:26:49;33;31;
62054;PMS5003;48653;51.742;-1.256;2023-04-21T05:29:15;41;33;
62054;PMS5003;48653;51.742;-1.256;2023-04-21T05:31:40;36;33;
62054;PMS5003;48653;51.742;-1.256;2023-04-21T05:34:06;45;37;
62054;PMS5003;48653;51.742;-1.256;2023-04-21T05:36:31;45;38;
62054;PMS5003;48653;51.742;-1.256;2023-04-21T05:38:57;39;36;
62054;PMS5003;48653;51.742;-1.256;2023-04-21T05:41:23;40;35;
62054;PMS5003;48653;51.742;-1.256;2023-04-21T05:43:48;41;35;
62054;PMS5003;48653;51.742;-1.256;2023-04-21T05:46:13;39;38;
62054;PMS5003;48653;51.742;-1.256;2023-04-21T05:48:38;39;36;
62054;PMS5003;48653;51.742;-1.256;2023-04-21T05:51:07;38;36;
62054;PMS5003;48653;51.742;-1.256;2023-04-21T05:53:29;42;37;
62054;PMS5003;48653;51.742;-1.256;2023-04-21T05:55:55;38;33;
62054;PMS5003;48653;51.742;-1.256;2023-04-21T05:58:20;40;37;
62054;PMS5003;48653;51.742;-1.256;2023-04-21T06:00:45;42;36;
62054;PMS5003;48653;51.742;-1.256;2023-04-21T06:03:11;47;41;
62054;PMS5003;48653;51.742;-1.256;2023-04-21T06:05:36;42;38;
62054;PMS5003;48653;51.742;-1.256;2023-04-21T06:08:01;36;33;
62054;PMS5003;48653;51.742;-1.256;2023-04-21T06:10:26;41;37;
62054;PMS5003;48653;51.742;-1.256;2023-04-21T06:12:52;49;42;
62054;PMS5003;48653;51.742;-1.256;2023-04-21T06:15:17;42;38;
62054;PMS5003;48653;51.742;-1.256;2023-04-21T06:17:43;45;38;
62054;PMS5003;48653;51.742;-1.256;2023-04-21T06:20:08;43;40;
62054;PMS5003;48653;51.742;-1.256;2023-04-21T06:22:33;42;37;
62054;PMS5003;48653;51.742;-1.256;2023-04-21T06:24:59;42;37;
62054;PMS5003;48653;51.742;-1.256;2023-04-21T06:27:24;41;36;
62054;PMS5003;48653;51.742;-1.256;2023-04-21T06:29:53;45;37;
62054;PMS5003;48653;51.742;-1.256;2023-04-21T06:32:16;51;44;
62054;PMS5003;48653;51.742;-1.256;2023-04-21T06:34:41;44;40;
62054;PMS5003;48653;51.742;-1.256;2023-04-21T06:37:07;40;31;
62054;PMS5003;48653;51.742;-1.256;2023-04-21T06:39:32;43;37;
62054;PMS5003;48653;51.742;-1.256;2023-04-21T06:41:58;46;40;
62054;PMS5003;48653;51.742;-1.256;2023-04-21T06:44:24;44;37;
62054;PMS5003;48653;51.742;-1.256;2023-04-21T06:46:49;42;39;
62054;PMS5003;48653;51.742;-1.256;2023-04-21T06:49:15;40;34;
62054;PMS5003;48653;51.742;-1.256;2023-04-21T06:51:41;43;36;
62054;PMS5003;48653;51.742;-1.256;2023-04-21T06:54:07;36;35;
62054;PMS5003;48653;51.742;-1.256;2023-04-21T06:56:32;43;35;
62054;PMS5003;48653;51.742;-1.256;2023-04-21T06:58:58;38;37;
62054;PMS5003;48653;51.742;-1.256;2023-04-21T07:01:23;33;32;
62054;PMS5003;48653;51.742;-1.256;2023-04-21T07:03:48;37;32;
62054;PMS5003;48653;51.742;-1.256;2023-04-21T07:06:14;36;32;
62054;PMS5003;48653;51.742;-1.256;2023-04-21T07:08:40;38;35;
62054;PMS5003;48653;51.742;-1.256;2023-04-21T07:11:06;32;30;
62054;PMS5003;48653;51.742;-1.256;2023-04-21T07:13:31;34;32;
62054;PMS5003;48653;51.742;-1.256;2023-04-21T07:15:56;38;33;
62054;PMS5003;48653;51.742;-1.256;2023-04-21T07:18:22;41;38;
62054;PMS5003;48653;51.742;-1.256;2023-04-21T07:20:48;32;29;
62054;PMS5003;48653;51.742;-1.256;2023-04-21T07:23:13;32;28;
62054;PMS5003;48653;51.742;-1.256;2023-04-21T07:25:39;36;34;
62054;PMS5003;48653;51.742;-1.256;2023-04-21T07:28:04;31;28;
62054;PMS5003;48653;51.742;-1.256;2023-04-21T07:30:29;34;30;
62054;PMS5003;48653;51.742;-1.256;2023-04-21T07:32:56;29;27;
62054;PMS5003;48653;51.742;-1.256;2023-04-21T07:35:20;34;31;
62054;PMS5003;48653;51.742;-1.256;2023-04-21T07:37:45;37;30;
62054;PMS5003;48653;51.742;-1.256;2023-04-21T07:40:11;28;26;
62054;PMS5003;48653;51.742;-1.256;2023-04-21T07:42:36;30;27;
62054;PMS5003;48653;51.742;-1.256;2023-04-21T07:45:01;30;27;
62054;PMS5003;48653;51.742;-1.256;2023-04-21T07:47:27;30;27;
62054;PMS5003;48653;51.742;-1.256;2023-04-21T07:49:52;25;23;
62054;PMS5003;48653;51.742;-1.256;2023-04-21T07:52:18;28;25;
62054;PMS5003;48653;51.742;-1.256;2023-04-21T07:54:43;23;22;
62054;PMS5003;48653;51.742;-1.256;2023-04-21T07:57:08;27;24;
62054;PMS5003;48653;51.742;-1.256;2023-04-21T07:59:34;26;25;
62054;PMS5003;48653;51.742;-1.256;2023-04-21T08:01:59;32;27;
62054;PMS5003;48653;51.742;-1.256;2023-04-21T08:04:24;22;22;
62054;PMS5003;48653;51.742;-1.256;2023-04-21T08:06:50;24;21;
62054;PMS5003;48653;51.742;-1.256;2023-04-21T08:09:16;23;19;
62054;PMS5003;48653;51.742;-1.256;2023-04-21T08:11:41;26;24;
62054;PMS5003;48653;51.742;-1.256;2023-04-21T08:14:07;27;24;
62054;PMS5003;48653;51.742;-1.256;2023-04-21T08:16:32;31;27;
62054;PMS5003;48653;51.742;-1.256;2023-04-21T08:18:57;26;23;
62054;PMS5003;48653;51.742;-1.256;2023-04-21T08:21:23;28;24;
62054;PMS5003;48653;51.742;-1.256;2023-04-21T08:23:49;27;24;
62054;PMS5003;48653;51.742;-1.256;2023-04-21T08:26:14;24;23;
62054;PMS5003;48653;51.742;-1.256;2023-04-21T08:28:39;28;25;
62054;PMS5003;48653;51.742;-1.256;2023-04-21T08:31:04;35;29;
62054;PMS5003;48653;51.742;-1.256;2023-04-21T08:33:29;27;25;
62054;PMS5003;48653;51.742;-1.256;2023-04-21T08:35:55;19;17;
62054;PMS5003;48653;51.742;-1.256;2023-04-21T08:38:20;22;22;
62054;PMS5003;48653;51.742;-1.256;2023-04-21T08:40:46;27;24;
62054;PMS5003;48653;51.742;-1.256;2023-04-21T08:43:11;23;21;
62054;PMS5003;48653;51.742;-1.256;2023-04-21T08:45:37;24;21;
62054;PMS5003;48653;51.742;-1.256;2023-04-21T08:48:02;24;21;
62054;PMS5003;48653;51.742;-1.256;2023-04-21T08:50:27;17;16;
62054;PMS5003;48653;51.742;-1.256;2023-04-21T08:52:53;22;22;
62054;PMS5003;48653;51.742;-1.256;2023-04-21T08:55:17;22;22;
62054;PMS5003;48653;51.742;-1.256;2023-04-21T08:57:43;28;21;
62054;PMS5003;48653;51.742;-1.256;2023-04-21T09:00:09;21;19;
62054;PMS5003;48653;51.742;-1.256;2023-04-21T09:02:36;23;20;
62054;PMS5003;48653;51.742;-1.256;2023-04-21T09:05:00;21;21;
62054;PMS5003;48653;51.742;-1.256;2023-04-21T09:07:29;22;22;
62054;PMS5003;48653;51.742;-1.256;2023-04-21T09:09:51;19;17;
62054;PMS5003;48653;51.742;-1.256;2023-04-21T09:12:17;22;19;
62054;PMS5003;48653;51.742;-1.256;2023-04-21T09:14:42;24;20;
62054;PMS5003;48653;51.742;-1.256;2023-04-21T09:17:07;22;21;
62054;PMS5003;48653;51.742;-1.256;2023-04-21T09:19:33;26;22;
62054;PMS5003;48653;51.742;-1.256;2023-04-21T09:21:59;26;21;
62054;PMS5003;48653;51.742;-1.256;2023-04-21T09:24:24;27;27;
62054;PMS5003;48653;51.742;-1.256;2023-04-21T09:26:50;22;22;
62054;PMS5003;48653;51.742;-1.256;2023-04-21T09:29:15;22;20;
62054;PMS5003;48653;51.742;-1.256;2023-04-21T09:31:41;22;20;
62054;PMS5003;48653;51.742;-1.256;2023-04-21T09:36:32;23;21;
62054;PMS5003;48653;51.742;-1.256;2023-04-21T09:38:58;23;21;
62054;PMS5003;48653;51.742;-1.256;2023-04-21T09:41:23;22;19;
62054;PMS5003;48653;51.742;-1.256;2023-04-21T09:43:48;19;16;
62054;PMS5003;48653;51.742;-1.256;2023-04-21T09:46:13;21;18;
62054;PMS5003;48653;51.742;-1.256;2023-04-21T09:48:39;17;16;
62054;PMS5003;48653;51.742;-1.256;2023-04-21T09:51:04;16;16;
62054;PMS5003;48653;51.742;-1.256;2023-04-21T09:53:29;19;16;
62054;PMS5003;48653;51.742;-1.256;2023-04-21T09:55:55;17;14;
62054;PMS5003;48653;51.742;-1.256;2023-04-21T09:58:20;14;14;
62054;PMS5003;48653;51.742;-1.256;2023-04-21T10:00:45;12;12;
62054;PMS5003;48653;51.742;-1.256;2023-04-21T10:03:10;18;16;
62054;PMS5003;48653;51.742;-1.256;2023-04-21T10:05:35;17;17;
62054;PMS5003;48653;51.742;-1.256;2023-04-21T10:08:00;20;15;
62054;PMS5003;48653;51.742;-1.256;2023-04-21T10:10:26;21;18;
62054;PMS5003;48653;51.742;-1.256;2023-04-21T10:12:51;19;17;
62054;PMS5003;48653;51.742;-1.256;2023-04-21T10:17:42;17;16;
62054;PMS5003;48653;51.742;-1.256;2023-04-21T10:20:08;18;15;
62054;PMS5003;48653;51.742;-1.256;2023-04-21T10:22:34;18;16;
62054;PMS5003;48653;51.742;-1.256;2023-04-21T10:24:59;19;17;
62054;PMS5003;48653;51.742;-1.256;2023-04-21T10:27:30;19;19;
62054;PMS5003;48653;51.742;-1.256;2023-04-21T10:29:50;19;17;
62054;PMS5003;48653;51.742;-1.256;2023-04-21T10:32:18;18;16;
62054;PMS5003;48653;51.742;-1.256;2023-04-21T10:34:41;16;15;
62054;PMS5003;48653;51.742;-1.256;2023-04-21T10:37:07;16;15;
62054;PMS5003;48653;51.742;-1.256;2023-04-21T10:39:32;16;14;
62054;PMS5003;48653;51.742;-1.256;2023-04-21T10:41:57;24;21;
62054;PMS5003;48653;51.742;-1.256;2023-04-21T10:44:22;17;17;
62054;PMS5003;48653;51.742;-1.256;2023-04-21T10:46:48;15;15;
62054;PMS5003;48653;51.742;-1.256;2023-04-21T10:54:04;22;19;
62054;PMS5003;48653;51.742;-1.256;2023-04-21T10:56:30;20;18;
62054;PMS5003;48653;51.742;-1.256;2023-04-21T10:58:55;12;12;
62054;PMS5003;48653;51.742;-1.256;2023-04-21T11:01:20;14;11;
62054;PMS5003;48653;51.742;-1.256;2023-04-21T11:03:45;15;15;
62054;PMS5003;48653;51.742;-1.256;2023-04-21T11:06:14;16;14;
62054;PMS5003;48653;51.742;-1.256;2023-04-21T11:08:36;15;15;
62054;PMS5003;48653;51.742;-1.256;2023-04-21T11:11:01;17;17;
62054;PMS5003;48653;51.742;-1.256;2023-04-21T11:13:27;14;13;
62054;PMS5003;48653;51.742;-1.256;2023-04-21T11:15:59;15;14;
62054;PMS5003;48653;51.742;-1.256;2023-04-21T11:18:17;16;14;
62054;PMS5003;48653;51.742;-1.256;2023-04-21T11:20:43;12;12;
62054;PMS5003;48653;51.742;-1.256;2023-04-21T11:23:09;13;13;
62054;PMS5003;48653;51.742;-1.256;2023-04-21T11:25:34;15;15;
62054;PMS5003;48653;51.742;-1.256;2023-04-21T11:28:00;15;14;
62054;PMS5003;48653;51.742;-1.256;2023-04-21T11:30:31;22;18;
62054;PMS5003;48653;51.742;-1.256;2023-04-21T11:32:52;19;16;
62054;PMS5003;48653;51.742;-1.256;2023-04-21T11:35:16;20;16;
62054;PMS5003;48653;51.742;-1.256;2023-04-21T11:37:41;20;18;
62054;PMS5003;48653;51.742;-1.256;2023-04-21T11:40:07;22;18;
62054;PMS5003;48653;51.742;-1.256;2023-04-21T11:42:32;17;16;
62054;PMS5003;48653;51.742;-1.256;2023-04-21T11:44:57;22;21;
62054;PMS5003;48653;51.742;-1.256;2023-04-21T11:47:23;19;18;
62054;PMS5003;48653;51.742;-1.256;2023-04-21T11:49:49;20;19;
62054;PMS5003;48653;51.742;-1.256;2023-04-21T11:52:21;21;20;
62054;PMS5003;48653;51.742;-1.256;2023-04-21T11:54:40;19;17;
62054;PMS5003;48653;51.742;-1.256;2023-04-21T11:57:05;17;17;
62054;PMS5003;48653;51.742;-1.256;2023-04-21T11:59:31;21;18;
62054;PMS5003;48653;51.742;-1.256;2023-04-21T12:01:56;22;19;
62054;PMS5003;48653;51.742;-1.256;2023-04-21T12:04:22;24;21;
62054;PMS5003;48653;51.742;-1.256;2023-04-21T12:06:55;24;22;
62054;PMS5003;48653;51.742;-1.256;2023-04-21T12:09:15;24;24;
62054;PMS5003;48653;51.742;-1.256;2023-04-21T12:11:38;20;18;
62054;PMS5003;48653;51.742;-1.256;2023-04-21T12:14:04;25;20;
62054;PMS5003;48653;51.742;-1.256;2023-04-21T12:16:29;20;18;
62054;PMS5003;48653;51.742;-1.256;2023-04-21T12:18:56;25;23;
62054;PMS5003;48653;51.742;-1.256;2023-04-21T12:21:19;20;20;
62054;PMS5003;48653;51.742;-1.256;2023-04-21T12:23:45;24;18;
62054;PMS5003;48653;51.742;-1.256;2023-04-21T12:26:11;21;20;
62054;PMS5003;48653;51.742;-1.256;2023-04-21T12:28:36;21;21;
62054;PMS5003;48653;51.742;-1.256;2023-04-21T12:31:01;22;19;
62054;PMS5003;48653;51.742;-1.256;2023-04-21T12:33:26;23;21;
62054;PMS5003;48653;51.742;-1.256;2023-04-21T12:35:52;22;20;
62054;PMS5003;48653;51.742;-1.256;2023-04-21T12:38:18;21;20;
62054;PMS5003;48653;51.742;-1.256;2023-04-21T12:40:43;21;19;
62054;PMS5003;48653;51.742;-1.256;2023-04-21T12:43:08;23;23;
62054;PMS5003;48653;51.742;-1.256;2023-04-21T12:45:34;19;19;
62054;PMS5003;48653;51.742;-1.256;2023-04-21T12:47:58;20;18;
62054;PMS5003;48653;51.742;-1.256;2023-04-21T12:50:24;19;17;
62054;PMS5003;48653;51.742;-1.256;2023-04-21T12:52:49;21;20;
62054;PMS5003;48653;51.742;-1.256;2023-04-21T12:55:15;21;21;
62054;PMS5003;48653;51.742;-1.256;2023-04-21T12:57:40;22;19;
62054;PMS5003;48653;51.742;-1.256;2023-04-21T13:00:05;19;15;
62054;PMS5003;48653;51.742;-1.256;2023-04-21T13:02:30;20;20;
62054;PMS5003;48653;51.742;-1.256;2023-04-21T13:04:56;15;15;
62054;PMS5003;48653;51.742;-1.256;2023-04-21T13:07:22;23;18;
62054;PMS5003;48653;51.742;-1.256;2023-04-21T13:09:47;16;16;
62054;PMS5003;48653;51.742;-1.256;2023-04-21T13:12:13;17;16;
62054;PMS5003;48653;51.742;-1.256;2023-04-21T13:14:39;19;19;
62054;PMS5003;48653;51.742;-1.256;2023-04-21T13:17:04;18;18;
62054;PMS5003;48653;51.742;-1.256;2023-04-21T13:19:29;22;18;
62054;PMS5003;48653;51.742;-1.256;2023-04-21T13:21:54;21;19;
62054;PMS5003;48653;51.742;-1.256;2023-04-21T13:24:20;19;19;
62054;PMS5003;48653;51.742;-1.256;2023-04-21T13:26:46;18;16;
62054;PMS5003;48653;51.742;-1.256;2023-04-21T13:29:11;25;24;
62054;PMS5003;48653;51.742;-1.256;2023-04-21T13:31:36;20;19;
62054;PMS5003;48653;51.742;-1.256;2023-04-21T13:34:01;18;16;
62054;PMS5003;48653;51.742;-1.256;2023-04-21T13:36:27;22;19;
62054;PMS5003;48653;51.742;-1.256;2023-04-21T13:38:52;19;17;
62054;PMS5003;48653;51.742;-1.256;2023-04-21T13:41:18;22;21;
62054;PMS5003;48653;51.742;-1.256;2023-04-21T13:43:43;20;19;
62054;PMS5003;48653;51.742;-1.256;2023-04-21T13:46:08;20;19;
62054;PMS5003;48653;51.742;-1.256;2023-04-21T13:48:34;14;14;
62054;PMS5003;48653;51.742;-1.256;2023-04-21T13:50:59;21;17;
62054;PMS5003;48653;51.742;-1.256;2023-04-21T13:53:24;19;19;
62054;PMS5003;48653;51.742;-1.256;2023-04-21T13:55:49;22;19;
62054;PMS5003;48653;51.742;-1.256;2023-04-21T13:58:15;21;18;
62054;PMS5003;48653;51.742;-1.256;2023-04-21T14:00:41;20;18;
62054;PMS5003;48653;51.742;-1.256;2023-04-21T14:03:07;18;17;
62054;PMS5003;48653;51.742;-1.256;2023-04-21T14:05:32;19;18;
62054;PMS5003;48653;51.742;-1.256;2023-04-21T14:07:58;20;19;
62054;PMS5003;48653;51.742;-1.256;2023-04-21T14:10:23;16;16;
62054;PMS5003;48653;51.742;-1.256;2023-04-21T14:12:48;22;19;
62054;PMS5003;48653;51.742;-1.256;2023-04-21T14:15:14;19;18;
62054;PMS5003;48653;51.742;-1.256;2023-04-21T14:17:39;22;18;
62054;PMS5003;48653;51.742;-1.256;2023-04-21T14:20:05;22;18;
62054;PMS5003;48653;51.742;-1.256;2023-04-21T14:22:30;19;19;
62054;PMS5003;48653;51.742;-1.256;2023-04-21T14:24:55;22;20;
62054;PMS5003;48653;51.742;-1.256;2023-04-21T14:27:21;24;23;
62054;PMS5003;48653;51.742;-1.256;2023-04-21T14:29:46;22;19;
62054;PMS5003;48653;51.742;-1.256;2023-04-21T14:32:11;23;18;
62054;PMS5003;48653;51.742;-1.256;2023-04-21T14:34:37;26;24;
62054;PMS5003;48653;51.742;-1.256;2023-04-21T14:37:02;26;23;
62054;PMS5003;48653;51.742;-1.256;2023-04-21T14:39:28;23;21;
62054;PMS5003;48653;51.742;-1.256;2023-04-21T14:41:54;23;19;
62054;PMS5003;48653;51.742;-1.256;2023-04-21T14:44:19;23;21;
62054;PMS5003;48653;51.742;-1.256;2023-04-21T14:46:44;22;21;
62054;PMS5003;48653;51.742;-1.256;2023-04-21T14:49:10;23;19;
62054;PMS5003;48653;51.742;-1.256;2023-04-21T14:51:35;18;16;
62054;PMS5003;48653;51.742;-1.256;2023-04-21T14:54:00;17;17;
62054;PMS5003;48653;51.742;-1.256;2023-04-21T14:56:26;22;16;
62054;PMS5003;48653;51.742;-1.256;2023-04-21T14:58:51;18;18;
62054;PMS5003;48653;51.742;-1.256;2023-04-21T15:01:16;20;18;
62054;PMS5003;48653;51.742;-1.256;2023-04-21T15:03:42;23;21;
62054;PMS5003;48653;51.742;-1.256;2023-04-21T15:06:07;24;22;
62054;PMS5003;48653;51.742;-1.256;2023-04-21T15:08:32;24;23;
62054;PMS5003;48653;51.742;-1.256;2023-04-21T15:10:58;24;21;
62054;PMS5003;48653;51.742;-1.256;2023-04-21T15:13:23;24;24;
62054;PMS5003;48653;51.742;-1.256;2023-04-21T15:15:49;20;20;
62054;PMS5003;48653;51.742;-1.256;2023-04-21T15:18:14;21;21;
62054;PMS5003;48653;51.742;-1.256;2023-04-21T15:20:39;25;22;
62054;PMS5003;48653;51.742;-1.256;2023-04-21T15:23:05;25;22;
62054;PMS5003;48653;51.742;-1.256;2023-04-21T15:25:30;25;22;
62054;PMS5003;48653;51.742;-1.256;2023-04-21T15:27:56;28;25;
62054;PMS5003;48653;51.742;-1.256;2023-04-21T15:30:21;30;26;
62054;PMS5003;48653;51.742;-1.256;2023-04-21T15:32:47;27;26;
62054;PMS5003;48653;51.742;-1.256;2023-04-21T15:35:12;26;25;
62054;PMS5003;48653;51.742;-1.256;2023-04-21T15:37:38;29;24;
62054;PMS5003;48653;51.742;-1.256;2023-04-21T15:40:03;27;22;
62054;PMS5003;48653;51.742;-1.256;2023-04-21T15:42:28;30;26;
62054;PMS5003;48653;51.742;-1.256;2023-04-21T15:44:54;25;25;
62054;PMS5003;48653;51.742;-1.256;2023-04-21T15:47:19;27;25;
62054;PMS5003;48653;51.742;-1.256;2023-04-21T15:49:44;25;24;
62054;PMS5003;48653;51.742;-1.256;2023-04-21T15:52:10;32;30;
62054;PMS5003;48653;51.742;-1.256;2023-04-21T15:54:35;27;25;
62054;PMS5003;48653;51.742;-1.256;2023-04-21T15:57:01;25;23;
62054;PMS5003;48653;51.742;-1.256;2023-04-21T15:59:26;24;23;